Historyczne dane pomiarowe

Dodano dane terminowe – wersja testowa.

Dane z okresu 1951-2019

Wersja bazy: 1.34 [2019-03-16, lista zmian], aktualizacja planowana na 2019-04-15

Dane meteo z obszaru Polski uzyskane na podstawie danych udostępnionych przez Instytut Meteorologii i Gospodarki Wodnej – Państwowy Instytut Badawczy.

 

Wybierz Datę:    

       

TemperaturaWilgotnośćWiatrCiśnienieOpadyŚniegCzas trwania zjawisk
 Stacja t tx tn tng RH VA  wxwx mslp ppp RRR   cm mm wxwxwxwxwxwxwx
1983-08-14 12.0 17.3 8.0--- 4.7 1.7---- 0.3------------
1983-08-13 15.5 21.4 11.8--- 8.0 2.7---- 10.6------------
1983-08-12 19.2 26.4 12.5--- 4.0 0.7---- 3.4------------
1983-08-11 20.5 26.0 14.8--- 3.3 1.0---- 0.0------------
1983-08-10 18.4 25.0 13.5--- 4.0 0.0---- 0.0------------
1983-08-09 17.1 24.8 12.0--- 8.0 0.0---- 54.1------------
1983-08-08 17.0 21.4 12.8--- 7.3 1.0---- 2.1------------
1983-08-07 15.6 19.9 13.0--- 8.0 1.7---- 1.8------------
1983-08-06 14.5 17.9 10.2--- 7.0 0.7---- 0.2------------
1983-08-05 12.5 16.2 8.2--- 7.0 1.3---- 0.0------------
1983-08-04 10.6 14.4 10.0--- 8.0 2.7---- 1.3------------
1983-08-03 17.4 19.9 14.4--- 5.7 2.3---- 0.4------------
1983-08-02 19.8 26.4 17.0--- 7.3 1.3---- 2.4------------
1983-08-01 22.9 31.1 13.0--- 0.0 1.3---- 0.0------------
1983-07-31 18.4 25.8 8.5--- 0.3 0.3---- 0.0------------
1983-07-30 18.4 24.5 15.3--- 5.3 4.0---- 0.0------------
1983-07-29 19.2 25.0 13.6--- 6.0 1.7---- 3.3------------
1983-07-28 23.6 28.5 19.4--- 3.3 1.7---- 0.0------------
1983-07-27 23.4 33.6 12.0--- 1.7 1.0---- 0.0------------
1983-07-26 20.7 28.9 9.5--- 0.0 0.7---- 0.0------------
1983-07-25 16.0 21.9 8.5--- 6.7 1.0---- 0.0------------
1983-07-24 16.9 23.0 9.4--- 3.3 1.3---- 0.9------------
1983-07-23 17.7 24.0 13.0--- 3.7 4.3---- 0.0------------
1983-07-22 12.3 17.0 8.0--- 8.0 2.3---- 0.2------------
1983-07-21 13.8 16.8 10.0--- 3.3 3.7---- 0.0------------
1983-07-20 15.3 23.6 12.8--- 7.0 2.0---- 1.8------------
1983-07-19 23.8 30.1 17.0--- 2.7 1.7---- 10.1------------
1983-07-18 23.6 32.6 13.0--- 0.0 0.3---- 0.0------------
1983-07-17 20.4 28.1 13.2--- 4.7 1.3---- 0.0------------
1983-07-16 20.4 28.1 12.6--- 4.3 1.7---- 0.0------------
1983-07-15 19.1 25.2 12.2--- 3.7 0.7---- 0.0------------
1983-07-14 18.0 22.1 15.5--- 6.7 3.3---- 0.0------------
1983-07-13 19.9 26.2 15.0--- 5.7 3.3---- 9.2------------
1983-07-12 18.2 25.2 16.3--- 8.0 2.0---- 9.0------------
1983-07-11 19.1 27.6 15.0--- 8.0 1.3---- 1.2------------
1983-07-10 22.0 29.3 13.4--- 2.7 1.0---- 0.0------------
1983-07-09 21.1 28.3 11.6--- 4.0 1.3---- 0.0------------
1983-07-08 21.8 28.1 11.5--- 0.0 2.0---- 0.0------------
1983-07-07 22.6 29.3 13.8--- 2.0 2.0---- 0.0------------
1983-07-06 21.9 28.3 12.0--- 1.7 1.0---- 0.0------------
1983-07-05 20.0 26.0 11.8--- 4.0 1.0---- 0.0------------
1983-07-04 19.9 26.0 12.0--- 2.7 0.7---- 0.0------------
1983-07-03 18.9 24.0 11.5--- 4.0 2.3---- 0.0------------
1983-07-02 17.8 23.0 15.0--- 5.3 1.7---- 0.0------------
1983-07-01 19.2 26.0 12.0--- 3.0 1.0---- 0.0------------
1983-06-30 16.0 22.4 7.5--- 1.7 1.3---- 0.0------------
1983-06-29 13.5 18.9 6.6--- 1.3 1.3---- 0.0------------
1983-06-28 16.1 21.3 14.6--- 8.0 2.3---- 0.1------------
1983-06-27 20.1 26.0 16.6--- 5.0 1.7---- 16.6------------
1983-06-26 19.7 25.4 15.4--- 6.3 1.3---- 0.0------------
1983-06-25 20.6 26.6 13.8--- 1.3 2.7---- 6.9------------
1983-06-24 17.1 25.6 6.0--- 0.0 1.3---- 0.0------------
1983-06-23 15.8 20.5 8.5--- 0.0 1.7---- 0.0------------
1983-06-22 16.4 21.2 12.6--- 1.3 3.3---- 0.0------------
1983-06-21 18.9 24.5 10.8--- 0.7 0.7---- 0.0------------
1983-06-20 17.4 21.9 15.0--- 6.3 1.0---- 0.0------------
1983-06-19 13.5 16.2 11.6--- 8.0 2.0---- 2.1------------
1983-06-18 11.4 13.3 9.0--- 8.0 2.3---- 10.4------------
1983-06-17 11.4 13.6 8.4--- 7.7 2.0---- 2.0------------
1983-06-16 11.2 14.3 9.0--- 8.0 4.7---- 0.0------------
1171.4 ms

 

Źródłem pochodzenia danych jest Instytut Meteorologii i Gospodarki Wodnej – Państwowy Instytut Badawczy. Dane Instytutu Meteorologii i Gospodarki Wodnej – Państwowego Instytutu Badawczego zostały przetworzone.

Dane źródłowe można odnaleźć na stronie https://dane.imgw.pl